| time (UTC) | temp C | wind direction | speed KPH | gust KPH | rain 1hr cm | rain 24hr cm | rain mn cm | humidity % | barometer mb |
| 20260510225217 | 20 | 102 | 12.9 | 14.5 | 0.00 | 0.00 | 0.00 | 36 | 1022.0 |
| 20260510224714 | 19 | 88 | 11.3 | 16.1 | 0.00 | 0.00 | 0.00 | 37 | 1022.2 |
| 20260510224210 | 19 | 122 | 16.1 | 22.5 | 0.00 | 0.00 | 0.00 | 37 | 1022.0 |
| 20260510223708 | 19 | 136 | 12.9 | 14.5 | 0.00 | 0.00 | 0.00 | 37 | 1022.3 |
| 20260510223205 | 20 | 112 | 16.1 | 17.7 | 0.00 | 0.00 | 0.00 | 37 | 1022.2 |
| 20260510222702 | 20 | 39 | 17.7 | 20.9 | 0.00 | 0.00 | 0.00 | 38 | 1022.0 |
| 20260510222159 | 20 | 71 | 4.8 | 6.4 | 0.00 | 0.00 | 0.00 | 37 | 1022.0 |
| 20260510221654 | 20 | 80 | 19.3 | 25.7 | 0.00 | 0.00 | 0.00 | 36 | 1022.0 |
| 20260510221151 | 20 | 92 | 17.7 | 17.7 | 0.00 | 0.00 | 0.00 | 37 | 1022.0 |
| 20260510220648 | 20 | 346 | 4.8 | 6.4 | 0.00 | 0.00 | 0.00 | 37 | 1022.0 |
| 20260510220143 | 20 | 89 | 11.3 | 14.5 | 0.00 | 0.00 | 0.00 | 38 | 1022.4 |
| 20260510215640 | 20 | 90 | 9.7 | 16.1 | 0.00 | 0.00 | 0.00 | 37 | 1022.2 |
| 20260510215139 | 20 | 123 | 14.5 | 20.9 | 0.00 | 0.00 | 0.00 | 38 | 1022.3 |
| 20260510214635 | 20 | 75 | 11.3 | 16.1 | 0.00 | 0.00 | 0.00 | 38 | 1022.3 |
| 20260510214131 | 20 | 88 | 14.5 | 24.1 | 0.00 | 0.00 | 0.00 | 38 | 1022.3 |
| 20260510213629 | 20 | 104 | 19.3 | 25.7 | 0.00 | 0.00 | 0.00 | 39 | 1022.3 |
| 20260510213125 | 20 | 95 | 14.5 | 17.7 | 0.00 | 0.00 | 0.00 | 39 | 1022.4 |
| 20260510212621 | 20 | 115 | 9.7 | 12.9 | 0.00 | 0.00 | 0.00 | 37 | 1022.4 |
| 20260510212119 | 20 | 46 | 6.4 | 12.9 | 0.00 | 0.00 | 0.00 | 36 | 1022.2 |
| 20260510211615 | 20 | 71 | 17.7 | 20.9 | 0.00 | 0.00 | 0.00 | 37 | 1022.4 |
| 20260510211115 | 20 | 106 | 6.4 | 9.7 | 0.00 | 0.00 | 0.00 | 38 | 1022.3 |
| 20260510210612 | 18 | 113 | 17.7 | 20.9 | 0.00 | 0.00 | 0.00 | 38 | 1022.2 |
| 20260510210108 | 19 | 158 | 14.5 | 24.1 | 0.00 | 0.00 | 0.00 | 37 | 1022.4 |
| 20260510205606 | 20 | 119 | 22.5 | 27.4 | 0.00 | 0.00 | 0.00 | 36 | 1022.0 |
| 20260510205103 | 18 | 134 | 12.9 | 20.9 | 0.00 | 0.00 | 0.00 | 38 | 1022.2 |
| 20260510204559 | 18 | 88 | 17.7 | 24.1 | 0.00 | 0.00 | 0.00 | 38 | 1022.4 |
| 20260510204056 | 19 | 128 | 19.3 | 25.7 | 0.00 | 0.00 | 0.00 | 37 | 1022.2 |
| 20260510203553 | 20 | 113 | 16.1 | 17.7 | 0.00 | 0.00 | 0.00 | 36 | 1022.3 |
| 20260510203050 | 21 | 143 | 24.1 | 30.6 | 0.00 | 0.00 | 0.00 | 34 | 1022.3 |
| 20260510202548 | 21 | 86 | 14.5 | 20.9 | 0.00 | 0.00 | 0.00 | 35 | 1022.0 |
| 20260510202045 | 19 | 104 | 11.3 | 12.9 | 0.00 | 0.00 | 0.00 | 35 | 1022.3 |
| 20260510201542 | 20 | 189 | 14.5 | 17.7 | 0.00 | 0.00 | 0.00 | 35 | 1022.3 |
| 20260510201039 | 21 | 103 | 17.7 | 20.9 | 0.00 | 0.00 | 0.00 | 33 | 1021.8 |
| 20260510200535 | 21 | 168 | 11.3 | 16.1 | 0.00 | 0.00 | 0.00 | 32 | 1021.9 |
| 20260510200033 | 21 | 126 | 17.7 | 20.9 | 0.00 | 0.00 | 0.00 | 32 | 1021.9 |
| 20260510195530 | 20 | 84 | 17.7 | 20.9 | 0.00 | 0.00 | 0.00 | 33 | 1021.4 |
| 20260510195026 | 20 | 102 | 17.7 | 24.1 | 0.00 | 0.00 | 0.00 | 33 | 1021.3 |
| 20260510194521 | 20 | 93 | 9.7 | 12.9 | 0.00 | 0.00 | 0.00 | 33 | 1021.5 |
| 20260510194018 | 20 | 124 | 6.4 | 9.7 | 0.00 | 0.00 | 0.00 | 32 | 1021.7 |
| 20260510193513 | 20 | 92 | 3.2 | 3.2 | 0.00 | 0.00 | 0.00 | 32 | 1021.4 |
| 20260510193009 | 21 | 137 | 9.7 | 12.9 | 0.00 | 0.00 | 0.00 | 30 | 1021.4 |
| 20260510192503 | 21 | 105 | 12.9 | 20.9 | 0.00 | 0.00 | 0.00 | 31 | 1021.3 |
| 20260510191959 | 20 | 112 | 9.7 | 11.3 | 0.00 | 0.00 | 0.00 | 31 | 1021.7 |
| 20260510191456 | 19 | 109 | 8.0 | 9.7 | 0.00 | 0.00 | 0.00 | 38 | 1021.7 |
| 20260510190953 | 19 | 83 | 1.6 | 3.2 | 0.00 | 0.00 | 0.00 | 35 | 1021.7 |
| 20260510190450 | 20 | 118 | 11.3 | 14.5 | 0.00 | 0.00 | 0.00 | 33 | 1021.7 |
| 20260510185947 | 20 | 144 | 11.3 | 14.5 | 0.00 | 0.00 | 0.00 | 32 | 1021.9 |
| 20260510185444 | 20 | 88 | 9.7 | 12.9 | 0.00 | 0.00 | 0.00 | 32 | 1021.7 |
| 20260510184942 | 20 | 116 | 14.5 | 17.7 | 0.00 | 0.00 | 0.00 | 31 | 1021.7 |
| 20260510184439 | 19 | 98 | 8.0 | 11.3 | 0.00 | 0.00 | 0.00 | 33 | 1021.9 |
| 20260510183938 | 19 | 104 | 11.3 | 14.5 | 0.00 | 0.00 | 0.00 | 33 | 1021.9 |
| 20260510183436 | 19 | 64 | 3.2 | 3.2 | 0.00 | 0.00 | 0.00 | 34 | 1021.7 |
| 20260510182935 | 20 | 63 | 4.8 | 4.8 | 0.00 | 0.00 | 0.00 | 32 | 1021.5 |
| 20260510182432 | 20 | 27 | 6.4 | 9.7 | 0.00 | 0.00 | 0.00 | 32 | 1021.8 |
| 20260510181927 | 19 | 76 | 8.0 | 12.9 | 0.00 | 0.00 | 0.00 | 34 | 1021.9 |
| 20260510181426 | 20 | 101 | 16.1 | 17.7 | 0.00 | 0.00 | 0.00 | 34 | 1021.8 |
| 20260510180922 | 20 | 88 | 8.0 | 12.9 | 0.00 | 0.00 | 0.00 | 33 | 1021.8 |
| 20260510180419 | 19 | 82 | 6.4 | 6.4 | 0.00 | 0.00 | 0.00 | 34 | 1021.8 |
| 20260510175916 | 20 | 132 | 9.7 | 11.3 | 0.00 | 0.00 | 0.00 | 33 | 1021.7 |
| 20260510175412 | 18 | 66 | 3.2 | 3.2 | 0.00 | 0.00 | 0.00 | 35 | 1021.9 |
| 20260510174908 | 18 | 130 | 11.3 | 14.5 | 0.00 | 0.00 | 0.00 | 36 | 1021.9 |
| 20260510174406 | 18 | 110 | 12.9 | 14.5 | 0.00 | 0.00 | 0.00 | 36 | 1021.9 |
| 20260510173902 | 19 | 97 | 6.4 | 9.7 | 0.00 | 0.00 | 0.00 | 35 | 1021.8 |
| 20260510173358 | 20 | 7 | 6.4 | 9.7 | 0.00 | 0.00 | 0.00 | 34 | 1021.9 |
| 20260510172854 | 20 | 93 | 4.8 | 4.8 | 0.00 | 0.00 | 0.00 | 34 | 1021.5 |
| 20260510172350 | 20 | 2 | 6.4 | 6.4 | 0.00 | 0.00 | 0.00 | 36 | 1021.7 |
| 20260510171846 | 20 | 72 | 8.0 | 11.3 | 0.00 | 0.00 | 0.00 | 34 | 1021.5 |
| 20260510171344 | 21 | 108 | 16.1 | 24.1 | 0.00 | 0.00 | 0.00 | 32 | 1021.4 |
| 20260510170841 | 21 | 94 | 16.1 | 24.1 | 0.00 | 0.00 | 0.00 | 33 | 1021.5 |
| 20260510170337 | 21 | 91 | 6.4 | 9.7 | 0.00 | 0.00 | 0.00 | 31 | 1021.0 |
| 20260510165832 | 20 | 120 | 8.0 | 11.3 | 0.00 | 0.00 | 0.00 | 32 | 1021.2 |
| 20260510165329 | 20 | 144 | 14.5 | 16.1 | 0.00 | 0.00 | 0.00 | 32 | 1021.2 |
| 20260510164827 | 20 | 61 | 9.7 | 12.9 | 0.00 | 0.00 | 0.00 | 32 | 1021.8 |
| 20260510164324 | 20 | 88 | 12.9 | 14.5 | 0.00 | 0.00 | 0.00 | 30 | 1021.2 |
| 20260510163823 | 20 | 100 | 12.9 | 14.5 | 0.00 | 0.00 | 0.00 | 31 | 1021.4 |
| 20260510163320 | 20 | 86 | 11.3 | 17.7 | 0.00 | 0.00 | 0.00 | 30 | 1021.3 |
| 20260510162820 | 19 | 93 | 6.4 | 9.7 | 0.00 | 0.00 | 0.00 | 31 | 1021.4 |
| 20260510162317 | 20 | 78 | 4.8 | 6.4 | 0.00 | 0.00 | 0.00 | 31 | 1021.4 |
| 20260510161813 | 20 | 106 | 4.8 | 4.8 | 0.00 | 0.00 | 0.00 | 32 | 1021.4 |
| 20260510161309 | 19 | 55 | 3.2 | 4.8 | 0.00 | 0.00 | 0.00 | 32 | 1021.5 |
| 20260510160807 | 20 | 94 | 16.1 | 20.9 | 0.00 | 0.00 | 0.00 | 32 | 1021.3 |
| 20260510160303 | 18 | 99 | 6.4 | 6.4 | 0.00 | 0.00 | 0.00 | 31 | 1021.2 |
| 20260510155803 | 18 | 99 | 9.7 | 12.9 | 0.00 | 0.00 | 0.00 | 32 | 1021.2 |
| 20260510155259 | 18 | 110 | 6.4 | 9.7 | 0.00 | 0.00 | 0.00 | 32 | 1021.2 |
| 20260510154755 | 19 | 155 | 9.7 | 11.3 | 0.00 | 0.00 | 0.00 | 32 | 1021.2 |
| 20260510154251 | 18 | 89 | 17.7 | 20.9 | 0.00 | 0.00 | 0.00 | 32 | 1021.2 |
| 20260510153746 | 19 | 96 | 11.3 | 16.1 | 0.00 | 0.00 | 0.00 | 32 | 1021.3 |
| 20260510153242 | 18 | 112 | 3.2 | 3.2 | 0.00 | 0.00 | 0.00 | 32 | 1021.3 |
| 20260510152739 | 18 | 243 | 3.2 | 4.8 | 0.00 | 0.00 | 0.00 | 33 | 1021.2 |
| 20260510152236 | 18 | 184 | 6.4 | 6.4 | 0.00 | 0.00 | 0.00 | 33 | 1021.3 |
| 20260510151732 | 17 | 127 | 6.4 | 11.3 | 0.00 | 0.00 | 0.00 | 35 | 1020.9 |
| 20260510151231 | 17 | 133 | 8.0 | 11.3 | 0.00 | 0.00 | 0.00 | 35 | 1021.2 |
| 20260510150726 | 17 | 128 | 6.4 | 6.4 | 0.00 | 0.00 | 0.00 | 34 | 1021.2 |
| 20260510150222 | 17 | 162 | 14.5 | 16.1 | 0.00 | 0.00 | 0.00 | 35 | 1021.2 |
| 20260510145718 | 17 | 143 | 6.4 | 6.4 | 0.00 | 0.00 | 0.00 | 36 | 1020.8 |
| 20260510145215 | 17 | 120 | 6.4 | 11.3 | 0.00 | 0.00 | 0.00 | 36 | 1020.9 |
| 20260510144711 | 17 | 107 | 11.3 | 12.9 | 0.00 | 0.00 | 0.00 | 36 | 1020.6 |
| 20260510144208 | 16 | 117 | 9.7 | 9.7 | 0.00 | 0.00 | 0.00 | 35 | 1020.8 |
| 20260510143702 | 16 | 86 | 6.4 | 6.4 | 0.00 | 0.00 | 0.00 | 37 | 1020.6 |
| 20260510143159 | 16 | 192 | 6.4 | 9.7 | 0.00 | 0.00 | 0.00 | 36 | 1020.9 |
| 20260510142655 | 16 | 97 | 8.0 | 9.7 | 0.00 | 0.00 | 0.00 | 36 | 1020.7 |
| 20260510142152 | 16 | 109 | 6.4 | 6.4 | 0.00 | 0.00 | 0.00 | 36 | 1020.7 |
| 20260510141649 | 16 | 131 | 8.0 | 9.7 | 0.00 | 0.00 | 0.00 | 36 | 1020.8 |
| 20260510141148 | 16 | 82 | 3.2 | 4.8 | 0.00 | 0.00 | 0.00 | 37 | 1020.4 |
| 20260510140644 | 16 | 94 | 6.4 | 6.4 | 0.00 | 0.00 | 0.00 | 36 | 1020.7 |
| 20260510140143 | 16 | 115 | 8.0 | 11.3 | 0.00 | 0.00 | 0.00 | 36 | 1020.3 |
| 20260510135638 | 15 | 126 | 9.7 | 12.9 | 0.00 | 0.00 | 0.00 | 36 | 1020.3 |
| 20260510135135 | 15 | 137 | 4.8 | 6.4 | 0.00 | 0.00 | 0.00 | 36 | 1020.3 |
| 20260510134632 | 15 | 87 | 3.2 | 4.8 | 0.00 | 0.00 | 0.00 | 37 | 1020.6 |
| 20260510134129 | 15 | 75 | 3.2 | 3.2 | 0.00 | 0.00 | 0.00 | 37 | 1020.1 |
| 20260510133625 | 15 | 79 | 3.2 | 4.8 | 0.00 | 0.00 | 0.00 | 37 | 1020.2 |
| 20260510133121 | 15 | 67 | 4.8 | 4.8 | 0.00 | 0.00 | 0.00 | 38 | 1019.9 |
| 20260510132618 | 14 | 86 | 3.2 | 6.4 | 0.00 | 0.00 | 0.00 | 38 | 1020.1 |
| 20260510132115 | 13 | 16 | 3.2 | 4.8 | 0.00 | 0.00 | 0.00 | 38 | 1019.7 |
| 20260510131612 | 13 | 38 | 1.6 | 1.6 | 0.00 | 0.00 | 0.00 | 38 | 1019.9 |
| 20260510131109 | 14 | 36 | 1.6 | 1.6 | 0.00 | 0.00 | 0.00 | 38 | 1019.9 |
| 20260510130605 | 13 | 61 | 1.6 | 1.6 | 0.00 | 0.00 | 0.00 | 38 | 1019.7 |
| 20260510125559 | 13 | 76 | 3.2 | 3.2 | 0.00 | 0.00 | 0.00 | 39 | 1019.8 |
| 20260510125056 | 13 | 94 | 3.2 | 3.2 | 0.00 | 0.00 | 0.00 | 38 | 1019.8 |
| 20260510124552 | 14 | 97 | 6.4 | 6.4 | 0.00 | 0.00 | 0.00 | 37 | 1019.6 |
| 20260510124050 | 14 | 102 | 8.0 | 9.7 | 0.00 | 0.00 | 0.00 | 37 | 1019.8 |
| 20260510123545 | 13 | 96 | 8.0 | 9.7 | 0.00 | 0.00 | 0.00 | 37 | 1019.3 |
| 20260510123041 | 13 | 83 | 3.2 | 3.2 | 0.00 | 0.00 | 0.00 | 37 | 1019.7 |
| 20260510122537 | 13 | 80 | 1.6 | 1.6 | 0.00 | 0.00 | 0.00 | 36 | 1019.4 |
| 20260510122033 | 14 | 51 | 3.2 | 3.2 | 0.00 | 0.00 | 0.00 | 36 | 1019.4 |
| 20260510121531 | 14 | 51 | 1.6 | 3.2 | 0.00 | 0.00 | 0.00 | 35 | 1019.2 |
| 20260510121028 | 15 | 60 | 1.6 | 1.6 | 0.00 | 0.00 | 0.00 | 34 | 1019.2 |
| 20260510120525 | 15 | 86 | 3.2 | 3.2 | 0.00 | 0.00 | 0.00 | 34 | 1019.3 |
| 20260510120021 | 15 | 78 | 3.2 | 3.2 | 0.00 | 0.00 | 0.00 | 33 | 1019.2 |
| 20260510115518 | 15 | 47 | 1.6 | 1.6 | 0.00 | 0.00 | 0.00 | 33 | 1019.0 |
| 20260510115014 | 15 | 130 | 6.4 | 6.4 | 0.00 | 0.00 | 0.00 | 32 | 1018.8 |
| 20260510114510 | 15 | 95 | 6.4 | 6.4 | 0.00 | 0.00 | 0.00 | 32 | 1018.8 |
| 20260510114006 | 15 | 95 | 4.8 | 6.4 | 0.00 | 0.00 | 0.00 | 33 | 1019.0 |
| 20260510113502 | 15 | 145 | 6.4 | 11.3 | 0.00 | 0.00 | 0.00 | 33 | 1019.1 |
| 20260510113000 | 15 | 182 | 4.8 | 6.4 | 0.00 | 0.00 | 0.00 | 33 | 1019.4 |
| 20260510112457 | 15 | 105 | 6.4 | 9.7 | 0.00 | 0.00 | 0.00 | 33 | 1019.4 |
| 20260510111953 | 15 | 262 | 8.0 | 11.3 | 0.00 | 0.00 | 0.00 | 34 | 1019.6 |
| 20260510111449 | 15 | 284 | 4.8 | 4.8 | 0.00 | 0.00 | 0.00 | 32 | 1019.8 |
| 20260510110945 | 15 | 344 | 3.2 | 3.2 | 0.00 | 0.00 | 0.00 | 32 | 1019.9 |
| 20260510110442 | 15 | 284 | 3.2 | 3.2 | 0.00 | 0.00 | 0.00 | 32 | 1019.6 |
| 20260510105937 | 16 | 329 | 1.6 | 1.6 | 0.00 | 0.00 | 0.00 | 30 | 1019.2 |
| 20260510105432 | 16 | 331 | 1.6 | 3.2 | 0.00 | 0.00 | 0.00 | 30 | 1019.3 |
| 20260510104928 | 16 | 275 | 4.8 | 4.8 | 0.00 | 0.00 | 0.00 | 30 | 1019.1 |
| 20260510104425 | 16 | 347 | 3.2 | 3.2 | 0.00 | 0.00 | 0.00 | 29 | 1018.6 |
| 20260510103922 | 15 | 248 | 9.7 | 12.9 | 0.00 | 0.00 | 0.00 | 30 | 1018.8 |
| 20260510103420 | 15 | 217 | 3.2 | 4.8 | 0.00 | 0.00 | 0.00 | 27 | 1019.0 |
| 20260510102914 | 14 | 42 | 3.2 | 4.8 | 0.00 | 0.00 | 0.00 | 29 | 1018.3 |
| 20260510102410 | 13 | 20 | 0.0 | 0.0 | 0.00 | 0.00 | 0.00 | 30 | 1018.6 |
| 20260510101907 | 13 | 17 | 0.0 | 0.0 | 0.00 | 0.00 | 0.00 | 30 | 1018.2 |
| 20260510101406 | 13 | 0 | 0.0 | 0.0 | 0.00 | 0.00 | 0.00 | 31 | 1018.5 |
| 20260510100903 | 13 | 2 | 0.0 | 0.0 | 0.00 | 0.00 | 0.00 | 30 | 1018.3 |
| 20260510100359 | 14 | 359 | 0.0 | 0.0 | 0.00 | 0.00 | 0.00 | 30 | 1018.1 |
| 20260510095856 | 15 | 347 | 0.0 | 0.0 | 0.00 | 0.00 | 0.00 | 29 | 1018.1 |
| 20260510095350 | 14 | 336 | 3.2 | 3.2 | 0.00 | 0.00 | 0.00 | 28 | 1018.1 |
| 20260510094850 | 13 | 355 | 0.0 | 0.0 | 0.00 | 0.00 | 0.00 | 30 | 1018.5 |
| 20260510094345 | 13 | 0 | 0.0 | 0.0 | 0.00 | 0.00 | 0.00 | 30 | 1018.1 |
| 20260510093842 | 13 | 0 | 0.0 | 0.0 | 0.00 | 0.00 | 0.00 | 30 | 1018.3 |
| 20260510093338 | 13 | 328 | 3.2 | 3.2 | 0.00 | 0.00 | 0.00 | 30 | 1018.5 |
| 20260510092834 | 13 | 341 | 1.6 | 3.2 | 0.00 | 0.00 | 0.00 | 30 | 1018.2 |
| 20260510092330 | 12 | 358 | 0.0 | 0.0 | 0.00 | 0.00 | 0.00 | 30 | 1018.2 |
| 20260510091826 | 12 | 3 | 0.0 | 0.0 | 0.00 | 0.00 | 0.00 | 31 | 1018.0 |
| 20260510091324 | 12 | 4 | 0.0 | 0.0 | 0.00 | 0.00 | 0.00 | 30 | 1017.8 |
| 20260510090820 | 12 | 4 | 0.0 | 0.0 | 0.00 | 0.00 | 0.00 | 30 | 1018.0 |
| 20260510090317 | 12 | 351 | 0.0 | 0.0 | 0.00 | 0.00 | 0.00 | 30 | 1018.1 |
| 20260510085813 | 12 | 350 | 1.6 | 1.6 | 0.00 | 0.00 | 0.00 | 31 | 1018.2 |
| 20260510085313 | 13 | 339 | 1.6 | 1.6 | 0.00 | 0.00 | 0.00 | 30 | 1018.0 |
| 20260510084808 | 13 | 6 | 0.0 | 0.0 | 0.00 | 0.00 | 0.00 | 29 | 1017.7 |
| 20260510084306 | 12 | 344 | 0.0 | 1.6 | 0.00 | 0.00 | 0.00 | 29 | 1017.8 |
| 20260510083802 | 12 | 353 | 0.0 | 0.0 | 0.00 | 0.00 | 0.00 | 30 | 1017.6 |
| 20260510083259 | 12 | 2 | 0.0 | 0.0 | 0.00 | 0.00 | 0.00 | 30 | 1017.6 |
| 20260510082755 | 13 | 2 | 0.0 | 0.0 | 0.00 | 0.00 | 0.00 | 29 | 1017.3 |
| 20260510082252 | 13 | 4 | 0.0 | 0.0 | 0.00 | 0.00 | 0.00 | 28 | 1017.3 |
| 20260510081750 | 13 | 3 | 0.0 | 0.0 | 0.00 | 0.00 | 0.00 | 29 | 1017.6 |
| 20260510081247 | 13 | 3 | 0.0 | 0.0 | 0.00 | 0.00 | 0.00 | 29 | 1017.6 |
| 20260510080742 | 13 | 7 | 0.0 | 0.0 | 0.00 | 0.00 | 0.00 | 28 | 1017.3 |
| 20260510080238 | 14 | 6 | 0.0 | 0.0 | 0.00 | 0.00 | 0.00 | 28 | 1017.2 |
| 20260510075735 | 14 | 22 | 0.0 | 1.6 | 0.00 | 0.00 | 0.00 | 27 | 1017.3 |
| 20260510075233 | 13 | 21 | 0.0 | 0.0 | 0.00 | 0.00 | 0.00 | 27 | 1017.3 |
| 20260510074730 | 13 | 356 | 0.0 | 0.0 | 0.00 | 0.00 | 0.00 | 27 | 1017.2 |
| 20260510074226 | 14 | 18 | 0.0 | 0.0 | 0.00 | 0.00 | 0.00 | 27 | 1017.1 |
| 20260510073722 | 14 | 6 | 0.0 | 0.0 | 0.00 | 0.00 | 0.00 | 26 | 1017.2 |
| 20260510073218 | 14 | 246 | 4.8 | 4.8 | 0.00 | 0.00 | 0.00 | 27 | 1017.3 |
| 20260510072714 | 15 | 14 | 0.0 | 0.0 | 0.00 | 0.00 | 0.00 | 26 | 1017.3 |
| 20260510072211 | 13 | 326 | 1.6 | 3.2 | 0.00 | 0.00 | 0.00 | 27 | 1017.3 |
| 20260510071708 | 13 | 350 | 0.0 | 0.0 | 0.00 | 0.00 | 0.00 | 27 | 1017.2 |
| 20260510071204 | 13 | 355 | 0.0 | 0.0 | 0.00 | 0.00 | 0.00 | 26 | 1017.2 |
| 20260510070702 | 13 | 353 | 0.0 | 0.0 | 0.00 | 0.00 | 0.00 | 26 | 1017.3 |
| 20260510070159 | 13 | 341 | 0.0 | 0.0 | 0.00 | 0.00 | 0.00 | 25 | 1017.2 |
| 20260510065654 | 14 | 288 | 1.6 | 1.6 | 0.00 | 0.00 | 0.00 | 25 | 1017.2 |
| 20260510065151 | 15 | 349 | 0.0 | 1.6 | 0.00 | 0.00 | 0.00 | 24 | 1017.0 |
| 20260510064647 | 15 | 347 | 0.0 | 0.0 | 0.00 | 0.00 | 0.00 | 24 | 1017.0 |
| 20260510064144 | 16 | 315 | 3.2 | 3.2 | 0.00 | 0.00 | 0.00 | 23 | 1016.9 |
| 20260510063642 | 15 | 301 | 1.6 | 1.6 | 0.00 | 0.00 | 0.00 | 23 | 1017.1 |
| 20260510063138 | 15 | 358 | 0.0 | 0.0 | 0.00 | 0.00 | 0.00 | 23 | 1017.1 |
| 20260510062634 | 14 | 3 | 0.0 | 1.6 | 0.00 | 0.00 | 0.00 | 23 | 1017.0 |
| 20260510062130 | 15 | 350 | 0.0 | 1.6 | 0.00 | 0.00 | 0.00 | 23 | 1017.1 |
| 20260510061626 | 15 | 354 | 0.0 | 0.0 | 0.00 | 0.00 | 0.00 | 23 | 1016.9 |
| 20260510061124 | 16 | 355 | 0.0 | 1.6 | 0.00 | 0.00 | 0.00 | 21 | 1017.0 |
| 20260510060619 | 16 | 338 | 1.6 | 1.6 | 0.00 | 0.00 | 0.00 | 21 | 1016.6 |
| 20260510060116 | 16 | 334 | 3.2 | 4.8 | 0.00 | 0.00 | 0.00 | 21 | 1016.9 |
| 20260510055612 | 16 | 8 | 6.4 | 6.4 | 0.00 | 0.00 | 0.00 | 21 | 1016.7 |
| 20260510055110 | 16 | 349 | 1.6 | 3.2 | 0.00 | 0.00 | 0.00 | 21 | 1016.4 |
| 20260510054606 | 16 | 352 | 1.6 | 3.2 | 0.00 | 0.00 | 0.00 | 21 | 1016.9 |
| 20260510054101 | 16 | 355 | 0.0 | 1.6 | 0.00 | 0.00 | 0.00 | 21 | 1016.2 |
| 20260510053601 | 16 | 357 | 0.0 | 1.6 | 0.00 | 0.00 | 0.00 | 21 | 1016.4 |
| 20260510053058 | 16 | 356 | 0.0 | 1.6 | 0.00 | 0.00 | 0.00 | 21 | 1016.2 |
| 20260510052553 | 16 | 357 | 1.6 | 3.2 | 0.00 | 0.00 | 0.00 | 21 | 1016.5 |
| 20260510052050 | 16 | 330 | 1.6 | 3.2 | 0.00 | 0.00 | 0.00 | 21 | 1016.4 |
| 20260510051545 | 16 | 340 | 1.6 | 1.6 | 0.00 | 0.00 | 0.00 | 21 | 1016.4 |
| 20260510051043 | 17 | 350 | 3.2 | 3.2 | 0.00 | 0.00 | 0.00 | 20 | 1016.2 |
| 20260510050540 | 17 | 352 | 0.0 | 1.6 | 0.00 | 0.00 | 0.00 | 20 | 1016.5 |
| 20260510050037 | 17 | 324 | 3.2 | 6.4 | 0.00 | 0.00 | 0.00 | 20 | 1016.2 |
| 20260510045534 | 17 | 317 | 4.8 | 6.4 | 0.00 | 0.00 | 0.00 | 20 | 1016.5 |
| 20260510045030 | 17 | 14 | 1.6 | 1.6 | 0.00 | 0.00 | 0.00 | 20 | 1016.2 |
| 20260510044527 | 18 | 308 | 1.6 | 3.2 | 0.00 | 0.00 | 0.00 | 19 | 1016.4 |
| 20260510044024 | 18 | 307 | 4.8 | 4.8 | 0.00 | 0.00 | 0.00 | 19 | 1016.1 |
| 20260510043520 | 19 | 310 | 6.4 | 6.4 | 0.00 | 0.00 | 0.00 | 18 | 1016.0 |
| 20260510043015 | 19 | 327 | 6.4 | 9.7 | 0.00 | 0.00 | 0.00 | 18 | 1016.1 |
| 20260510042509 | 19 | 284 | 8.0 | 9.7 | 0.00 | 0.00 | 0.00 | 18 | 1016.2 |
| 20260510042005 | 19 | 328 | 8.0 | 11.3 | 0.00 | 0.00 | 0.00 | 19 | 1016.2 |
| 20260510041502 | 18 | 306 | 8.0 | 12.9 | 0.00 | 0.00 | 0.00 | 19 | 1016.2 |
| 20260510041000 | 18 | 292 | 3.2 | 4.8 | 0.00 | 0.00 | 0.00 | 21 | 1016.2 |
| 20260510040456 | 18 | 314 | 3.2 | 3.2 | 0.00 | 0.00 | 0.00 | 21 | 1016.1 |
| 20260510035951 | 19 | 310 | 4.8 | 4.8 | 0.00 | 0.00 | 0.00 | 20 | 1016.1 |
| 20260510035449 | 20 | 342 | 1.6 | 1.6 | 0.00 | 0.00 | 0.00 | 20 | 1015.9 |
| 20260510034948 | 20 | 346 | 3.2 | 3.2 | 0.00 | 0.00 | 0.00 | 19 | 1015.9 |
| 20260510034447 | 20 | 248 | 3.2 | 3.2 | 0.00 | 0.00 | 0.00 | 20 | 1015.9 |
| 20260510033943 | 20 | 300 | 3.2 | 3.2 | 0.00 | 0.00 | 0.00 | 19 | 1015.7 |
| 20260510033439 | 20 | 262 | 9.7 | 11.3 | 0.00 | 0.00 | 0.00 | 19 | 1016.0 |
| 20260510032936 | 19 | 247 | 12.9 | 22.5 | 0.00 | 0.00 | 0.00 | 21 | 1016.0 |
| 20260510032433 | 19 | 323 | 1.6 | 1.6 | 0.00 | 0.00 | 0.00 | 21 | 1015.9 |
| 20260510031928 | 19 | 301 | 1.6 | 3.2 | 0.00 | 0.00 | 0.00 | 21 | 1016.1 |
| 20260510031424 | 20 | 306 | 1.6 | 1.6 | 0.00 | 0.00 | 0.00 | 21 | 1015.9 |
| 20260510030919 | 20 | 301 | 3.2 | 3.2 | 0.00 | 0.00 | 0.00 | 21 | 1015.7 |
| 20260510030415 | 20 | 265 | 4.8 | 6.4 | 0.00 | 0.00 | 0.00 | 21 | 1015.7 |
| 20260510025913 | 20 | 254 | 8.0 | 11.3 | 0.00 | 0.00 | 0.00 | 21 | 1015.9 |
| 20260510025410 | 20 | 288 | 4.8 | 4.8 | 0.00 | 0.00 | 0.00 | 21 | 1015.7 |
| 20260510024907 | 20 | 294 | 4.8 | 6.4 | 0.00 | 0.00 | 0.00 | 20 | 1015.5 |
| 20260510024404 | 20 | 297 | 8.0 | 9.7 | 0.00 | 0.00 | 0.00 | 20 | 1015.6 |
| 20260510023900 | 21 | 242 | 6.4 | 6.4 | 0.00 | 0.00 | 0.00 | 20 | 1015.4 |
| 20260510023356 | 21 | 245 | 14.5 | 22.5 | 0.00 | 0.00 | 0.00 | 20 | 1015.6 |
| 20260510022854 | 21 | 274 | 9.7 | 11.3 | 0.00 | 0.00 | 0.00 | 20 | 1015.5 |
| 20260510022353 | 21 | 305 | 9.7 | 12.9 | 0.00 | 0.00 | 0.00 | 20 | 1015.5 |
| 20260510021851 | 21 | 323 | 3.2 | 4.8 | 0.00 | 0.00 | 0.00 | 19 | 1015.0 |
| 20260510021350 | 21 | 293 | 4.8 | 4.8 | 0.00 | 0.00 | 0.00 | 19 | 1015.0 |
| 20260510020846 | 21 | 287 | 8.0 | 11.3 | 0.00 | 0.00 | 0.00 | 19 | 1014.9 |
| 20260510020346 | 21 | 247 | 6.4 | 9.7 | 0.00 | 0.00 | 0.00 | 19 | 1015.1 |
| 20260510015842 | 21 | 310 | 17.7 | 22.5 | 0.00 | 0.00 | 0.00 | 19 | 1014.9 |
| 20260510015338 | 21 | 278 | 9.7 | 12.9 | 0.00 | 0.00 | 0.00 | 19 | 1015.0 |
| 20260510014833 | 21 | 274 | 9.7 | 11.3 | 0.00 | 0.00 | 0.00 | 18 | 1014.9 |
| 20260510014331 | 22 | 277 | 8.0 | 11.3 | 0.00 | 0.00 | 0.00 | 18 | 1014.9 |
| 20260510013827 | 22 | 280 | 11.3 | 14.5 | 0.00 | 0.00 | 0.00 | 17 | 1015.0 |
| 20260510013323 | 22 | 276 | 14.5 | 14.5 | 0.00 | 0.00 | 0.00 | 17 | 1014.8 |
| 20260510012818 | 22 | 282 | 9.7 | 11.3 | 0.00 | 0.00 | 0.00 | 17 | 1014.6 |
| 20260510012317 | 22 | 274 | 9.7 | 16.1 | 0.00 | 0.00 | 0.00 | 17 | 1014.3 |
| 20260510011812 | 22 | 274 | 8.0 | 9.7 | 0.00 | 0.00 | 0.00 | 16 | 1014.6 |
| 20260510011308 | 22 | 281 | 8.0 | 11.3 | 0.00 | 0.00 | 0.00 | 16 | 1014.5 |
| 20260510010805 | 22 | 268 | 9.7 | 11.3 | 0.00 | 0.00 | 0.00 | 16 | 1014.5 |
| 20260510010302 | 23 | 226 | 9.7 | 12.9 | 0.00 | 0.00 | 0.00 | 16 | 1014.4 |
| 20260510005759 | 23 | 219 | 9.7 | 12.9 | 0.00 | 0.00 | 0.00 | 16 | 1014.4 |
| 20260510005255 | 23 | 234 | 12.9 | 17.7 | 0.00 | 0.00 | 0.00 | 16 | 1014.4 |
| 20260510004753 | 23 | 287 | 12.9 | 14.5 | 0.00 | 0.00 | 0.00 | 15 | 1014.5 |
| 20260510004250 | 23 | 240 | 8.0 | 9.7 | 0.00 | 0.00 | 0.00 | 15 | 1014.5 |
| 20260510003748 | 23 | 306 | 8.0 | 12.9 | 0.00 | 0.00 | 0.00 | 14 | 1014.3 |
| 20260510003244 | 23 | 275 | 6.4 | 9.7 | 0.00 | 0.00 | 0.00 | 15 | 1014.1 |
| 20260510002743 | 23 | 284 | 9.7 | 11.3 | 0.00 | 0.00 | 0.00 | 14 | 1014.3 |
| 20260510002240 | 23 | 316 | 8.0 | 11.3 | 0.00 | 0.00 | 0.00 | 14 | 1014.6 |
| 20260510001737 | 24 | 281 | 8.0 | 14.5 | 0.00 | 0.00 | 0.00 | 14 | 1014.6 |
| 20260510001236 | 23 | 261 | 9.7 | 11.3 | 0.00 | 0.00 | 0.00 | 14 | 1014.5 |
| 20260510000731 | 24 | 268 | 12.9 | 14.5 | 0.00 | 0.00 | 0.00 | 14 | 1014.5 |
| 20260510000229 | 25 | 257 | 9.7 | 12.9 | 0.00 | 0.00 | 0.00 | 14 | 1014.4 |
| 20260509235725 | 25 | 322 | 12.9 | 17.7 | 0.00 | 0.00 | 0.00 | 13 | 1014.4 |
| 20260509235222 | 25 | 270 | 11.3 | 12.9 | 0.00 | 0.00 | 0.00 | 13 | 1014.1 |
| 20260509234718 | 25 | 351 | 9.7 | 11.3 | 0.00 | 0.00 | 0.00 | 13 | 1014.1 |
| 20260509234215 | 25 | 288 | 14.5 | 17.7 | 0.00 | 0.00 | 0.00 | 13 | 1014.5 |
| 20260509233713 | 25 | 343 | 9.7 | 12.9 | 0.00 | 0.00 | 0.00 | 13 | 1014.6 |
| 20260509233210 | 26 | 309 | 17.7 | 24.1 | 0.00 | 0.00 | 0.00 | 13 | 1014.5 |
| 20260509232706 | 26 | 307 | 11.3 | 12.9 | 0.00 | 0.00 | 0.00 | 13 | 1014.3 |
| 20260509232203 | 25 | 301 | 12.9 | 17.7 | 0.00 | 0.00 | 0.00 | 13 | 1014.5 |
| 20260509231700 | 26 | 269 | 11.3 | 12.9 | 0.00 | 0.00 | 0.00 | 13 | 1014.6 |
| 20260509231158 | 26 | 311 | 11.3 | 12.9 | 0.00 | 0.00 | 0.00 | 13 | 1014.5 |
| 20260509230655 | 25 | 303 | 11.3 | 12.9 | 0.00 | 0.00 | 0.00 | 13 | 1014.6 |
| 20260509230151 | 24 | 307 | 12.9 | 14.5 | 0.00 | 0.00 | 0.00 | 13 | 1014.6 |
| 20260509225647 | 25 | 270 | 6.4 | 6.4 | 0.00 | 0.00 | 0.00 | 13 | 1014.6 |